Brickton, Illinois
Current Conditions -  °F | °C
As of 4:35 AM on Monday 22 Dec 2014 (Local Time) from KVYS Reporting Station
Overcast Overcast  
Wind Chill: 25°   Ceiling: 4000
Heat Index: 34°   Visibility: 7mi
Dew Point: 31°   Wind: 13mph
Humidity: 88%   Direction: 140°SE
Pressure: 29.91"   Gusts: NA
Location:  41.4349°N, 88.8687°W
Report Text: KVYS 221035Z AUTO 14011KT 7SM OVC040 01/00 A2991 RMK AO2 T00131005
Loading
Personal Weather Stations






























Interactive Weather Map New forecast layout! Learn more

10-Day Weather Forecast

Advertisements
Track Severe Weather on mobile